createdAt,value
2018-01-14T00:01:11.115Z,-0.30
2018-01-14T00:03:39.958Z,-0.30
2018-01-14T00:06:15.247Z,-0.30
2018-01-14T00:08:47.539Z,-0.30
2018-01-14T00:11:16.598Z,-0.30
2018-01-14T00:13:56.610Z,-0.30
2018-01-14T00:16:26.783Z,-0.30
2018-01-14T00:21:38.422Z,-0.30
2018-01-14T00:24:08.802Z,-0.30
2018-01-14T00:26:39.142Z,-0.30
2018-01-14T00:29:08.211Z,-0.30
2018-01-14T00:31:41.582Z,-0.30
2018-01-14T00:34:11.830Z,-0.30
2018-01-14T00:36:43.558Z,-0.30
2018-01-14T00:39:11.704Z,-0.30
2018-01-14T00:41:46.190Z,-0.30
2018-01-14T00:44:14.851Z,-0.30
2018-01-14T00:46:47.438Z,-0.30
2018-01-14T00:49:15.602Z,-0.30
2018-01-14T00:51:45.000Z,-0.30
2018-01-14T00:54:15.886Z,-0.30
2018-01-14T00:56:47.942Z,-0.30
2018-01-14T00:59:16.938Z,-0.30
2018-01-14T01:01:45.894Z,-0.30
2018-01-14T01:04:25.926Z,-0.30
2018-01-14T01:06:56.030Z,-0.30
2018-01-14T01:09:26.650Z,-0.30
2018-01-14T01:12:00.434Z,-0.30
2018-01-14T01:14:33.646Z,-0.30
2018-01-14T01:17:13.382Z,-0.30
2018-01-14T01:19:48.326Z,-0.30
2018-01-14T01:22:17.421Z,-0.30
2018-01-14T01:24:50.705Z,-0.30
2018-01-14T01:27:19.674Z,-0.30
2018-01-14T01:29:51.154Z,-0.30
2018-01-14T01:32:21.203Z,-0.30
2018-01-14T01:34:50.290Z,-0.30
2018-01-14T01:37:22.301Z,-0.30
2018-01-14T01:39:51.333Z,-0.30
2018-01-14T01:42:20.358Z,-0.30
2018-01-14T01:44:49.402Z,-0.30
2018-01-14T01:47:17.497Z,-0.30
2018-01-14T01:49:54.946Z,-0.30
2018-01-14T01:52:23.031Z,-0.30
2018-01-14T01:54:51.070Z,-0.30
2018-01-14T01:57:32.953Z,-0.30
2018-01-14T02:00:08.842Z,-0.30
2018-01-14T02:02:38.809Z,-0.30
2018-01-14T02:05:09.762Z,-0.30
2018-01-14T02:07:37.865Z,-0.30
2018-01-14T02:10:10.898Z,-0.30
2018-01-14T02:12:40.177Z,-0.30
2018-01-14T02:15:13.345Z,-0.30
2018-01-14T02:17:43.386Z,-0.30
2018-01-14T02:20:14.213Z,-0.30
2018-01-14T02:35:37.285Z,-0.30
2018-01-14T02:50:59.345Z,-0.30
2018-01-14T02:53:27.905Z,-0.30
2018-01-14T03:01:15.485Z,-0.30
2018-01-14T03:03:45.685Z,-0.30
2018-01-14T03:17:03.729Z,-0.20
2018-01-14T03:19:32.854Z,-0.30
2018-01-14T03:22:05.773Z,-0.20
2018-01-14T03:24:37.725Z,-0.20
2018-01-14T03:29:41.685Z,-0.20
2018-01-14T03:32:16.449Z,-0.20
2018-01-14T03:34:49.521Z,-0.20
2018-01-14T03:39:56.480Z,-0.20
2018-01-14T03:45:06.977Z,-0.20
2018-01-14T03:52:57.120Z,-0.20
2018-01-14T04:00:33.528Z,-0.20
2018-01-14T04:03:05.733Z,-0.20
2018-01-14T04:10:47.842Z,-0.20
2018-01-14T04:31:26.257Z,-0.20
2018-01-14T04:33:58.145Z,-0.30
2018-01-14T04:36:37.168Z,-0.30
2018-01-14T04:41:48.016Z,-0.30
2018-01-14T04:44:23.268Z,-0.30
2018-01-14T04:47:01.600Z,-0.30
2018-01-14T04:49:35.692Z,-0.30
2018-01-14T05:03:08.424Z,-0.40
2018-01-14T05:05:43.124Z,-0.40
2018-01-14T05:08:34.476Z,-0.40
2018-01-14T05:11:14.800Z,-0.40
2018-01-14T05:13:42.844Z,-0.40
2018-01-14T05:16:28.992Z,-0.40
2018-01-14T05:19:03.080Z,-0.40
2018-01-14T05:21:34.983Z,-0.30
2018-01-14T05:24:15.824Z,-0.30
2018-01-14T05:26:45.784Z,-0.30
2018-01-14T05:29:29.484Z,-0.20
2018-01-14T05:31:59.468Z,-0.30
2018-01-14T05:34:40.160Z,-0.20
2018-01-14T05:37:08.232Z,-0.20
2018-01-14T05:39:42.888Z,-0.20
2018-01-14T05:42:10.976Z,-0.20
2018-01-14T05:45:01.440Z,-0.20
2018-01-14T05:47:34.036Z,-0.20
2018-01-14T05:50:04.080Z,-0.20
2018-01-14T05:52:32.868Z,-0.30
2018-01-14T05:55:02.876Z,-0.30
2018-01-14T05:57:32.892Z,-0.30
2018-01-14T06:00:23.848Z,-0.40
2018-01-14T06:02:53.856Z,-0.40
2018-01-14T06:05:21.908Z,-0.40
2018-01-14T06:07:50.112Z,-0.40
2018-01-14T06:10:29.792Z,-0.40
2018-01-14T06:12:58.792Z,-0.40
2018-01-14T06:15:33.508Z,-0.30
2018-01-14T06:18:13.952Z,-0.30
2018-01-14T06:20:47.843Z,-0.30
2018-01-14T06:23:18.636Z,-0.30
2018-01-14T06:25:51.520Z,-0.30
2018-01-14T06:28:20.600Z,-0.20
2018-01-14T06:30:57.260Z,-0.20
2018-01-14T06:33:40.679Z,-0.20
2018-01-14T06:36:09.712Z,-0.20
2018-01-14T06:38:37.985Z,-0.20
2018-01-14T06:43:56.112Z,-0.30
2018-01-14T06:46:26.168Z,-0.40
2018-01-14T06:49:18.291Z,-0.40
2018-01-14T06:54:53.811Z,-0.40
2018-01-14T06:57:25.124Z,-0.30
2018-01-14T06:59:54.192Z,-0.30
2018-01-14T07:02:23.175Z,-0.20
2018-01-14T07:04:55.467Z,-0.20
2018-01-14T07:07:33.856Z,-0.20
2018-01-14T07:10:05.724Z,-0.10
2018-01-14T07:12:34.508Z,0.00
2018-01-14T07:15:10.742Z,-0.10
2018-01-14T07:17:44.467Z,-0.10
2018-01-14T07:20:14.468Z,0.00
2018-01-14T07:22:45.199Z,0.00
2018-01-14T07:25:13.256Z,0.00
2018-01-14T07:27:42.291Z,0.00
2018-01-14T07:30:11.082Z,0.10
2018-01-14T07:32:43.152Z,0.10
2018-01-14T07:35:13.160Z,0.10
2018-01-14T07:37:42.132Z,0.10
2018-01-14T07:40:10.972Z,0.10
2018-01-14T07:42:43.615Z,0.10
2018-01-14T07:45:12.612Z,0.10
2018-01-14T07:47:40.855Z,0.10
2018-01-14T07:50:08.960Z,0.20
2018-01-14T07:52:39.047Z,0.20
2018-01-14T07:55:08.069Z,0.20
2018-01-14T07:57:42.673Z,0.20
2018-01-14T08:00:11.549Z,0.20
2018-01-14T08:02:39.631Z,0.20
2018-01-14T08:05:07.687Z,0.30
2018-01-14T08:07:36.791Z,0.30
2018-01-14T08:10:06.851Z,0.50
2018-01-14T08:12:35.851Z,0.40
2018-01-14T08:15:08.296Z,0.50
2018-01-14T08:17:38.303Z,0.50
2018-01-14T08:20:08.307Z,0.50
2018-01-14T08:22:38.575Z,0.50
2018-01-14T08:25:09.979Z,0.60
2018-01-14T08:27:40.179Z,0.60
2018-01-14T08:30:15.359Z,0.60
2018-01-14T08:32:44.459Z,0.70
2018-01-14T08:35:13.423Z,0.70
2018-01-14T08:37:41.463Z,0.70
2018-01-14T08:40:10.499Z,0.70
2018-01-14T08:42:38.567Z,0.70
2018-01-14T08:45:06.707Z,0.70
2018-01-14T08:47:34.731Z,0.80
2018-01-14T08:50:03.687Z,0.80
2018-01-14T08:52:32.699Z,0.80
2018-01-14T08:55:02.795Z,0.90
2018-01-14T08:57:43.711Z,0.90
2018-01-14T09:00:18.335Z,0.90
2018-01-14T09:02:50.071Z,1.00
2018-01-14T09:05:18.203Z,1.00
2018-01-14T09:07:48.206Z,1.10
2018-01-14T09:10:18.143Z,1.10
2018-01-14T09:12:46.179Z,1.10
2018-01-14T09:15:26.243Z,1.10
2018-01-14T09:17:55.343Z,1.20
2018-01-14T09:20:26.102Z,1.20
2018-01-14T09:22:59.423Z,1.20
2018-01-14T09:25:27.442Z,1.20
2018-01-14T09:27:55.483Z,1.20
2018-01-14T09:30:36.307Z,1.30
2018-01-14T09:33:06.347Z,1.30
2018-01-14T09:35:36.419Z,1.40
2018-01-14T09:38:04.455Z,1.50
2018-01-14T09:40:32.543Z,1.60
2018-01-14T09:43:02.587Z,1.60
2018-01-14T09:45:34.051Z,1.70
2018-01-14T09:48:04.103Z,1.60
2018-01-14T09:50:33.035Z,1.60
2018-01-14T09:53:01.059Z,1.60
2018-01-14T09:55:36.451Z,1.60
2018-01-14T09:58:04.523Z,1.70
2018-01-14T10:00:33.443Z,1.70
2018-01-14T10:03:02.251Z,1.60
2018-01-14T10:05:30.283Z,1.60
2018-01-14T10:08:01.531Z,1.60
2018-01-14T10:10:30.338Z,1.70
2018-01-14T10:12:59.427Z,1.70
2018-01-14T10:15:29.455Z,1.70
2018-01-14T10:17:57.498Z,1.70
2018-01-14T10:20:26.290Z,1.70
2018-01-14T10:22:55.083Z,1.70
2018-01-14T10:25:25.834Z,1.70
2018-01-14T10:27:53.866Z,1.70
2018-01-14T10:30:21.934Z,1.80
2018-01-14T10:32:49.974Z,1.80
2018-01-14T10:35:18.922Z,1.90
2018-01-14T10:37:47.063Z,1.90
2018-01-14T10:40:18.330Z,1.90
2018-01-14T10:42:50.187Z,2.00
2018-01-14T10:45:19.166Z,1.90
2018-01-14T10:47:49.714Z,2.00
2018-01-14T10:50:25.230Z,2.00
2018-01-14T10:52:53.302Z,2.00
2018-01-14T10:55:27.026Z,2.00
2018-01-14T10:57:58.074Z,2.00
2018-01-14T11:00:38.355Z,2.10
2018-01-14T11:03:08.326Z,2.20
2018-01-14T11:05:37.346Z,2.30
2018-01-14T11:08:09.982Z,2.40
2018-01-14T11:10:38.038Z,2.40
2018-01-14T11:13:12.279Z,2.60
2018-01-14T11:15:40.378Z,2.40
2018-01-14T11:18:16.686Z,2.20
2018-01-14T11:20:44.726Z,2.20
2018-01-14T11:23:16.794Z,2.20
2018-01-14T11:25:45.762Z,2.30
2018-01-14T11:28:16.494Z,2.40
2018-01-14T11:30:45.278Z,2.50
2018-01-14T11:33:19.850Z,2.50
2018-01-14T11:35:49.814Z,2.50
2018-01-14T11:38:17.842Z,2.50
2018-01-14T11:40:45.907Z,2.60
2018-01-14T11:46:07.939Z,2.40
2018-01-14T11:48:36.026Z,2.40
2018-01-14T11:51:08.070Z,2.30
2018-01-14T11:53:39.722Z,2.30
2018-01-14T11:56:07.810Z,2.40
2018-01-14T11:58:37.814Z,2.40
2018-01-14T12:01:07.790Z,2.50
2018-01-14T12:03:40.606Z,2.50
2018-01-14T12:06:10.426Z,2.60
2018-01-14T12:08:40.390Z,2.50
2018-01-14T12:11:10.142Z,2.40
2018-01-14T12:13:39.570Z,2.30
2018-01-14T12:16:07.648Z,2.30
2018-01-14T12:18:38.752Z,2.40
2018-01-14T12:21:17.198Z,2.40
2018-01-14T12:23:45.382Z,2.30
2018-01-14T12:26:19.710Z,2.20
2018-01-14T12:28:48.660Z,2.20
2018-01-14T12:31:16.746Z,2.30
2018-01-14T12:37:17.119Z,2.40
2018-01-14T12:39:47.102Z,2.40
2018-01-14T12:42:20.158Z,2.40
2018-01-14T12:44:49.845Z,2.30
2018-01-14T12:47:19.186Z,2.30
2018-01-14T12:49:56.138Z,2.50
2018-01-14T12:52:27.073Z,2.70
2018-01-14T12:54:55.138Z,2.70
2018-01-14T12:57:27.741Z,2.70
2018-01-14T12:59:56.890Z,2.70
2018-01-14T13:02:32.341Z,2.70
2018-01-14T13:05:00.353Z,2.90
2018-01-14T13:07:37.277Z,2.80
2018-01-14T13:10:06.378Z,2.80
2018-01-14T13:12:38.081Z,2.70
2018-01-14T13:15:06.921Z,2.60
2018-01-14T13:17:38.853Z,2.60
2018-01-14T13:20:16.529Z,2.60
2018-01-14T13:22:46.337Z,2.50
2018-01-14T13:25:15.129Z,2.50
2018-01-14T13:27:44.113Z,2.50
2018-01-14T13:30:13.929Z,2.50
2018-01-14T13:32:41.981Z,2.50
2018-01-14T13:35:10.811Z,2.50
2018-01-14T13:37:40.853Z,2.50
2018-01-14T13:40:08.925Z,2.50
2018-01-14T13:42:37.022Z,2.40
2018-01-14T13:45:13.289Z,2.40
2018-01-14T13:47:43.293Z,2.40
2018-01-14T13:50:11.329Z,2.30
2018-01-14T13:52:39.397Z,2.30
2018-01-14T13:55:08.325Z,2.30
2018-01-14T13:57:38.329Z,2.20
2018-01-14T14:00:06.373Z,2.20
2018-01-14T14:02:35.389Z,2.20
2018-01-14T14:05:21.253Z,2.00
2018-01-14T14:07:49.341Z,2.00
2018-01-14T14:10:31.781Z,2.10
2018-01-14T14:13:05.909Z,2.00
2018-01-14T14:15:39.661Z,2.00
2018-01-14T14:18:07.777Z,2.00
2018-01-14T14:20:37.721Z,1.90
2018-01-14T14:23:05.957Z,1.90
2018-01-14T14:25:34.961Z,2.00
2018-01-14T14:28:04.891Z,2.00
2018-01-14T14:30:40.139Z,1.90
2018-01-14T14:33:10.101Z,1.90
2018-01-14T14:35:40.173Z,1.80
2018-01-14T14:38:09.130Z,1.80
2018-01-14T14:40:45.297Z,1.70
2018-01-14T14:43:13.357Z,1.60
2018-01-14T14:45:41.397Z,1.60
2018-01-14T14:48:09.393Z,1.50
2018-01-14T14:50:49.097Z,1.40
2018-01-14T14:53:22.833Z,1.40
2018-01-14T14:55:50.909Z,1.40
2018-01-14T14:58:24.741Z,1.30
2018-01-14T15:00:57.765Z,1.30
2018-01-14T15:03:25.873Z,1.30
2018-01-14T15:05:55.989Z,1.30
2018-01-14T15:08:33.469Z,1.30
2018-01-14T15:11:04.417Z,1.20
2018-01-14T15:13:32.577Z,1.20
2018-01-14T15:16:01.633Z,1.20
2018-01-14T15:18:29.681Z,1.20
2018-01-14T15:21:00.065Z,1.10
2018-01-14T15:23:28.185Z,1.10
2018-01-14T15:26:00.944Z,1.10
2018-01-14T15:28:31.690Z,1.00
2018-01-14T15:31:00.621Z,1.00
2018-01-14T15:33:36.692Z,1.00
2018-01-14T15:36:09.581Z,1.00
2018-01-14T15:38:40.625Z,1.00
2018-01-14T15:41:09.632Z,1.00
2018-01-14T15:43:37.709Z,1.00
2018-01-14T15:46:06.529Z,0.90
2018-01-14T15:48:34.537Z,0.90
2018-01-14T15:51:02.565Z,0.90
2018-01-14T15:53:31.510Z,0.90
2018-01-14T15:56:04.641Z,0.90
2018-01-14T15:58:46.148Z,0.90
2018-01-14T16:01:18.372Z,0.80
2018-01-14T16:03:46.369Z,0.80
2018-01-14T16:06:18.132Z,0.80
2018-01-14T16:08:47.081Z,0.80
2018-01-14T16:11:15.085Z,0.80
2018-01-14T16:13:43.132Z,0.70
2018-01-14T16:16:13.832Z,0.70
2018-01-14T16:18:42.829Z,0.70
2018-01-14T16:21:20.467Z,0.70
2018-01-14T16:23:50.416Z,0.60
2018-01-14T16:26:23.637Z,0.60
2018-01-14T16:28:58.013Z,0.50
2018-01-14T16:31:31.262Z,0.50
2018-01-14T16:33:59.313Z,0.50
2018-01-14T16:36:27.324Z,0.50
2018-01-14T16:38:55.336Z,0.50
2018-01-14T16:41:36.180Z,0.50
2018-01-14T16:44:05.117Z,0.40
2018-01-14T16:46:37.417Z,0.50
2018-01-14T16:49:11.877Z,0.50
2018-01-14T16:51:45.821Z,0.50
2018-01-14T16:54:28.158Z,0.50
2018-01-14T16:56:59.457Z,0.50
2018-01-14T16:59:29.477Z,0.40
2018-01-14T17:01:57.473Z,0.40
2018-01-14T17:04:34.545Z,0.40
2018-01-14T17:07:02.553Z,0.40
2018-01-14T17:09:38.149Z,0.40
2018-01-14T17:12:06.185Z,0.40
2018-01-14T17:14:42.033Z,0.40
2018-01-14T17:17:14.285Z,0.30
2018-01-14T17:19:48.181Z,0.30
2018-01-14T17:25:18.025Z,0.30
2018-01-14T17:27:46.976Z,0.30
2018-01-14T17:30:20.352Z,0.30
2018-01-14T17:32:48.369Z,0.30
2018-01-14T17:35:17.308Z,0.30
2018-01-14T17:37:47.212Z,0.30
2018-01-14T17:40:20.637Z,0.30
2018-01-14T17:42:55.209Z,0.30
2018-01-14T17:45:24.148Z,0.30
2018-01-14T17:47:53.128Z,0.30
2018-01-14T17:50:25.883Z,0.30
2018-01-14T17:52:54.632Z,0.30
2018-01-14T17:55:30.032Z,0.30
2018-01-14T17:58:05.780Z,0.30
2018-01-14T18:00:34.704Z,0.20
2018-01-14T18:03:02.712Z,0.20
2018-01-14T18:05:48.076Z,0.20
2018-01-14T18:08:16.084Z,0.20
2018-01-14T18:10:47.256Z,0.20
2018-01-14T18:13:27.984Z,0.20
2018-01-14T18:15:56.012Z,0.20
2018-01-14T18:18:45.092Z,0.20
2018-01-14T18:21:17.644Z,0.10
2018-01-14T18:23:47.331Z,0.10
2018-01-14T18:26:17.251Z,0.10
2018-01-14T18:28:47.175Z,0.10
2018-01-14T18:31:17.908Z,0.10
2018-01-14T18:33:47.626Z,0.00
2018-01-14T18:36:15.599Z,0.00
2018-01-14T18:38:57.984Z,-0.10
2018-01-14T18:41:26.000Z,-0.10
2018-01-14T18:44:05.303Z,-0.10
2018-01-14T18:46:37.516Z,-0.30
2018-01-14T18:49:10.235Z,-0.30
2018-01-14T18:51:42.899Z,-0.30
2018-01-14T18:54:15.467Z,-0.40
2018-01-14T18:56:47.288Z,-0.40
2018-01-14T18:59:17.956Z,-0.60
2018-01-14T19:01:49.512Z,-0.70
2018-01-14T19:04:18.444Z,-0.80
2018-01-14T19:06:51.107Z,-0.80
2018-01-14T19:09:24.531Z,-0.90
2018-01-14T19:11:57.592Z,-0.90
2018-01-14T19:14:27.259Z,-0.90
2018-01-14T19:17:00.032Z,-0.90
2018-01-14T19:19:31.728Z,-1.00
2018-01-14T19:21:59.853Z,-1.10
2018-01-14T19:24:34.059Z,-1.30
2018-01-14T19:27:03.055Z,-1.30
2018-01-14T19:29:35.331Z,-1.20
2018-01-14T19:32:04.416Z,-1.20
2018-01-14T19:34:38.015Z,-1.20
2018-01-14T19:37:08.379Z,-1.30
2018-01-14T19:39:37.443Z,-1.30
2018-01-14T19:42:14.107Z,-1.40
2018-01-14T19:44:44.647Z,-1.60
2018-01-14T19:47:13.591Z,-1.80
2018-01-14T19:49:42.587Z,-2.00
2018-01-14T19:52:14.347Z,-1.80
2018-01-14T19:54:43.595Z,-1.80
2018-01-14T19:57:19.635Z,-1.60
2018-01-14T19:59:53.543Z,-1.70
2018-01-14T20:02:24.743Z,-1.70
2018-01-14T20:04:54.788Z,-1.80
2018-01-14T20:07:27.363Z,-1.80
2018-01-14T20:09:57.083Z,-1.80
2018-01-14T20:12:27.599Z,-1.80
2018-01-14T20:14:56.451Z,-1.80
2018-01-14T20:17:36.915Z,-1.70
2018-01-14T20:20:08.863Z,-1.60
2018-01-14T20:22:39.954Z,-1.60
2018-01-14T20:25:18.323Z,-1.70
2018-01-14T20:27:56.730Z,-1.70
2018-01-14T20:30:29.275Z,-1.70
2018-01-14T20:33:02.035Z,-2.10
2018-01-14T20:35:36.934Z,-2.10
2018-01-14T20:38:06.410Z,-2.30
2018-01-14T20:40:36.359Z,-2.40
2018-01-14T20:43:19.607Z,-2.40
2018-01-14T20:45:50.395Z,-2.40
2018-01-14T20:48:19.443Z,-2.40
2018-01-14T20:50:48.563Z,-2.30
2018-01-14T20:53:29.187Z,-2.30
2018-01-14T20:56:03.519Z,-2.20
2018-01-14T20:58:33.555Z,-2.20
2018-01-14T21:01:03.547Z,-2.20
2018-01-14T21:03:39.407Z,-2.20
2018-01-14T21:06:14.219Z,-2.10
2018-01-14T21:08:43.259Z,-2.10
2018-01-14T21:11:12.518Z,-2.10
2018-01-14T21:13:40.619Z,-2.20
2018-01-14T21:16:19.795Z,-2.30
2018-01-14T21:18:50.167Z,-2.40
2018-01-14T21:21:24.240Z,-2.50
2018-01-14T21:23:56.015Z,-2.40
2018-01-14T21:26:26.139Z,-2.40
2018-01-14T21:28:56.324Z,-2.30
2018-01-14T21:31:32.854Z,-2.30
2018-01-14T21:34:00.967Z,-2.30
2018-01-14T21:36:29.122Z,-2.20
2018-01-14T21:39:07.599Z,-2.20
2018-01-14T21:41:35.690Z,-2.20
2018-01-14T21:44:05.710Z,-2.20
2018-01-14T21:46:34.803Z,-2.20
2018-01-14T21:49:08.779Z,-2.20
2018-01-14T21:51:40.898Z,-2.30
2018-01-14T21:54:09.235Z,-2.20
2018-01-14T21:56:37.916Z,-2.20
2018-01-14T21:59:07.994Z,-2.10
2018-01-14T22:01:46.558Z,-2.10
2018-01-14T22:04:15.890Z,-2.00
2018-01-14T22:06:47.274Z,-2.00
2018-01-14T22:11:58.042Z,-1.90
2018-01-14T22:14:27.279Z,-1.90
2018-01-14T22:17:01.418Z,-1.90
2018-01-14T22:19:30.790Z,-2.00
2018-01-14T22:22:02.666Z,-2.00
2018-01-14T22:24:36.558Z,-2.00
2018-01-14T22:27:06.934Z,-2.10
2018-01-14T22:29:38.530Z,-2.30
2018-01-14T22:32:08.754Z,-2.50
2018-01-14T22:50:02.322Z,-2.80
2018-01-14T22:52:32.094Z,-2.80
2018-01-14T22:55:01.786Z,-2.80
2018-01-14T22:57:37.602Z,-2.90
2018-01-14T23:00:07.862Z,-2.80
2018-01-14T23:07:50.398Z,-3.00
2018-01-14T23:10:18.578Z,-3.00
2018-01-14T23:12:48.898Z,-2.90
2018-01-14T23:15:18.982Z,-2.70
2018-01-14T23:17:48.954Z,-2.50
2018-01-14T23:20:26.982Z,-2.20
2018-01-14T23:22:55.970Z,-2.20
2018-01-14T23:25:34.190Z,-2.20
2018-01-14T23:28:03.279Z,-2.10
2018-01-14T23:30:34.955Z,-2.10
2018-01-14T23:33:05.874Z,-2.10
2018-01-14T23:35:40.630Z,-2.10
2018-01-14T23:38:08.806Z,-2.00
2018-01-14T23:40:47.886Z,-2.10
2018-01-14T23:43:16.009Z,-2.10
2018-01-14T23:45:44.074Z,-2.20
2018-01-14T23:48:13.202Z,-2.20
2018-01-14T23:50:41.261Z,-2.20
2018-01-14T23:53:20.953Z,-2.20
2018-01-14T23:55:49.919Z,-2.30
2018-01-14T23:58:18.721Z,-2.20
